Time;durP1;ratioP1;P1;durP2;ratioP2;P2;SDS_P1;SDS_P2;PMS_P1;PMS_P2;Temp;Humidity;BMP_temperature;BMP_pressure;BME280_temperature;BME280_humidity;BME280_pressure;Samples;Min_cycle;Max_cycle;Signal;HPM_P1;HPM_P2
2022/12/18 00:01:23;;;;;;;8.90;5.50;;;;;;;0.51;97.79;101224.88;6376107;27;20107;-78
2022/12/18 00:04:26;;;;;;;10.50;5.72;;;;;;;0.49;98.66;101236.00;6357551;27;20555;-78
2022/12/18 00:07:27;;;;;;;;;;;;;;;0.44;98.75;101240.31;6376478;27;20050;-77
2022/12/18 00:10:28;;;;;;;10.07;4.57;;;;;;;0.38;99.41;101241.16;6357672;27;19919;-78
2022/12/18 00:13:29;;;;;;;14.48;5.50;;;;;;;0.40;100.00;101249.72;6374831;27;20085;-76
2022/12/18 00:16:32;;;;;;;11.50;5.97;;;;;;;0.29;100.00;101247.16;6368490;27;20039;-76
2022/12/18 00:19:33;;;;;;;11.55;4.63;;;;;;;0.26;99.52;101253.97;6374595;27;20126;-77
2022/12/18 00:22:34;;;;;;;17.88;4.30;;;;;;;0.29;100.00;101256.53;6350923;27;20088;-77
2022/12/18 00:25:35;;;;;;;11.18;6.47;;;;;;;0.31;100.00;101258.28;6349097;28;20043;-76
2022/12/18 00:28:36;;;;;;;9.45;5.20;;;;;;;0.28;100.00;101270.25;6348902;28;20047;-76
2022/12/18 00:31:38;;;;;;;6.80;3.67;;;;;;;0.28;100.00;101272.81;6330507;28;20051;-76
2022/12/18 00:34:38;;;;;;;18.67;7.00;;;;;;;0.26;100.00;101270.22;6349219;27;20047;-75
2022/12/18 00:37:41;;;;;;;12.02;6.20;;;;;;;0.30;99.80;101279.66;6372756;27;20047;-75
2022/12/18 00:40:42;;;;;;;13.68;5.30;;;;;;;0.26;100.00;101290.78;6348834;27;20044;-76
2022/12/18 00:43:42;;;;;;;11.35;5.95;;;;;;;0.24;100.00;101295.03;6347407;28;20059;-75
2022/12/18 00:46:45;;;;;;;14.32;5.25;;;;;;;0.26;100.00;101306.19;6347427;28;20376;-77
2022/12/18 00:49:45;;;;;;;12.00;5.45;;;;;;;0.35;100.00;101307.91;6348076;28;20044;-75
2022/12/18 00:52:46;;;;;;;7.38;4.95;;;;;;;0.33;100.00;101310.47;6347794;28;20047;-76
2022/12/18 00:55:47;;;;;;;14.32;5.13;;;;;;;0.31;100.00;101312.19;6329954;28;20058;-77
2022/12/18 00:58:48;;;;;;;16.15;7.38;;;;;;;0.19;100.00;101318.16;6346991;28;20527;-76
2022/12/18 01:01:49;;;;;;;14.57;6.50;;;;;;;0.20;100.00;101316.44;6360535;27;20032;-77
2022/12/18 01:04:50;;;;;;;10.23;5.82;;;;;;;0.17;100.00;101319.84;6373777;27;20046;-75
2022/12/18 01:07:50;;;;;;;17.85;6.65;;;;;;;0.14;100.00;101314.69;6372337;27;20498;-77
2022/12/18 01:10:51;;;;;;;14.70;6.93;;;;;;;0.13;100.00;101318.13;6371842;27;20058;-76
2022/12/18 01:13:53;;;;;;;13.90;6.82;;;;;;;0.16;100.00;101320.69;6373330;27;20039;-77
2022/12/18 01:16:54;;;;;;;13.98;5.70;;;;;;;0.15;100.00;101318.16;6372218;27;20130;-76
2022/12/18 01:20:01;;;;;;;10.57;5.70;;;;;;;0.17;100.00;101327.56;6373186;27;20039;-76
2022/12/18 01:23:01;;;;;;;14.60;6.63;;;;;;;0.09;100.00;101330.97;6373076;27;20122;-75
2022/12/18 01:26:08;;;;;;;7.97;5.40;;;;;;;0.10;100.00;101335.22;6406456;27;20071;-76
2022/12/18 01:29:09;;;;;;;18.35;7.00;;;;;;;0.06;100.00;101346.34;6358133;27;20117;-76
2022/12/18 01:32:09;;;;;;;11.35;5.38;;;;;;;0.04;100.00;101342.91;6372162;27;20047;-76
2022/12/18 01:35:10;;;;;;;12.43;6.50;;;;;;;-0.02;100.00;101339.50;6374055;27;20501;-77
2022/12/18 01:38:11;;;;;;;13.98;4.82;;;;;;;0.01;100.00;101341.22;6351173;27;20768;-78
2022/12/18 01:41:12;;;;;;;11.25;5.80;;;;;;;0.02;100.00;101345.47;6348270;28;20138;-76
2022/12/18 01:44:50;;;;;;;9.85;5.97;;;;;;;0.12;100.00;101341.22;6329821;28;20058;-75
2022/12/18 01:47:55;;;;;;;10.60;5.85;;;;;;;0.12;100.00;101348.94;6349309;27;20097;-76
2022/12/18 01:50:55;;;;;;;9.93;5.95;;;;;;;0.22;100.00;101352.38;6347781;28;20107;-76
2022/12/18 01:53:57;;;;;;;19.40;6.50;;;;;;;0.22;100.00;101371.19;6346437;28;20047;-76
2022/12/18 01:56:58;;;;;;;12.07;4.40;;;;;;;0.10;100.00;101369.44;6347137;28;20050;-76
2022/12/18 02:00:07;;;;;;;11.88;5.53;;;;;;;0.06;100.00;101372.84;6347548;28;20063;-77
2022/12/18 02:03:07;;;;;;;18.75;6.18;;;;;;;0.04;100.00;101387.41;6380403;27;20044;-76
2022/12/18 02:06:08;;;;;;;21.98;6.68;;;;;;;0.04;100.00;101391.69;6346285;28;20108;-76
2022/12/18 02:09:16;;;;;;;14.52;5.63;;;;;;;-0.07;100.00;101386.50;6346310;28;20054;-75
2022/12/18 02:12:24;;;;;;;7.82;3.97;;;;;;;-0.08;100.00;101405.34;6346115;28;20388;-76
2022/12/18 02:15:51;;;;;;;11.05;5.03;;;;;;;-0.10;100.00;101404.47;6346611;28;20040;-77
2022/12/18 02:19:00;;;;;;;12.38;4.75;;;;;;;-0.14;100.00;101410.44;6347739;28;20420;-77
2022/12/18 02:22:26;;;;;;;9.63;5.28;;;;;;;-0.10;100.00;101405.31;6347654;28;20392;-77
2022/12/18 02:25:42;;;;;;;6.40;3.90;;;;;;;-0.06;100.00;101407.06;6347793;28;20035;-77
2022/12/18 02:28:47;;;;;;;15.38;5.50;;;;;;;-0.08;100.00;101406.19;6360932;27;20063;-76
2022/12/18 02:31:52;;;;;;;10.05;4.45;;;;;;;-0.07;100.00;101420.72;6371335;27;20035;-76
2022/12/18 02:34:56;;;;;;;11.85;5.07;;;;;;;-0.21;100.00;101422.34;6371397;27;20399;-75
2022/12/18 02:37:58;;;;;;;6.82;4.65;;;;;;;-0.15;100.00;101421.53;6342822;28;20047;-75
2022/12/18 02:41:00;;;;;;;15.83;5.27;;;;;;;-0.22;100.00;101418.09;6346137;28;20044;-76
2022/12/18 02:44:06;;;;;;;11.67;5.87;;;;;;;-0.23;100.00;101426.63;6363290;27;20526;-77
2022/12/18 02:47:10;;;;;;;20.88;6.25;;;;;;;-0.22;100.00;101425.78;6380150;27;20035;-77
2022/12/18 02:50:30;;;;;;;7.05;4.03;;;;;;;-0.28;100.00;101434.31;6347064;28;20047;-76
2022/12/18 02:53:35;;;;;;;12.68;4.70;;;;;;;-0.39;100.00;101437.63;6347044;28;20044;-77
2022/12/18 02:56:40;;;;;;;14.00;5.47;;;;;;;-0.28;100.00;101444.56;6345965;28;20480;-76
2022/12/18 02:59:52;;;;;;;10.73;4.88;;;;;;;-0.36;100.00;101438.53;6345567;28;20047;-76
2022/12/18 03:03:06;;;;;;;7.97;4.70;;;;;;;-0.43;100.00;101445.34;6346648;28;20371;-76
2022/12/18 03:06:18;;;;;;;18.58;5.53;;;;;;;-0.41;100.00;101443.63;6345298;28;20102;-77
2022/12/18 03:09:30;;;;;;;14.23;7.10;;;;;;;-0.44;100.00;101453.00;6345677;28;20495;-77
2022/12/18 03:12:35;;;;;;;10.93;5.70;;;;;;;-0.42;100.00;101457.28;6344871;28;20467;-77
2022/12/18 03:15:47;;;;;;;20.73;6.38;;;;;;;-0.48;100.00;101464.09;6349888;28;20040;-77
2022/12/18 03:18:53;;;;;;;7.68;4.35;;;;;;;-0.47;100.00;101466.69;6352179;28;20449;-77
2022/12/18 03:22:00;;;;;;;13.43;6.15;;;;;;;-0.60;100.00;101472.53;6350887;28;20039;-77
2022/12/18 03:25:04;;;;;;;16.60;5.10;;;;;;;-0.59;100.00;101479.41;6350568;28;20039;-77
2022/12/18 03:28:09;;;;;;;10.27;5.80;;;;;;;-0.67;100.00;101476.78;6349332;28;20127;-76
2022/12/18 03:31:12;;;;;;;9.45;5.60;;;;;;;-0.68;100.00;101484.44;6349267;28;20411;-76
2022/12/18 03:34:18;;;;;;;21.63;7.57;;;;;;;-0.67;100.00;101486.19;6349212;28;20402;-77
2022/12/18 03:37:19;;;;;;;15.85;6.10;;;;;;;-0.72;100.00;101486.16;6350342;28;20526;-77
2022/12/18 03:40:26;;;;;;;6.75;3.72;;;;;;;-0.73;100.00;101492.09;6351151;28;20044;-77
2022/12/18 03:43:30;;;;;;;14.75;5.15;;;;;;;-0.88;100.00;101500.53;6367219;27;20498;-77
2022/12/18 03:46:41;;;;;;;14.30;5.05;;;;;;;-0.88;100.00;101494.53;6350912;28;20126;-77
2022/12/18 03:49:57;;;;;;;14.55;5.55;;;;;;;-0.92;100.00;101495.38;6349980;28;20047;-76
2022/12/18 03:53:08;;;;;;;11.75;6.20;;;;;;;-0.87;100.00;101499.66;6350694;28;20120;-75
2022/12/18 03:56:11;;;;;;;8.23;4.95;;;;;;;-0.84;100.00;101494.56;6350827;28;20044;-75
2022/12/18 03:59:19;;;;;;;8.98;3.90;;;;;;;-0.86;100.00;101496.28;6350566;28;20092;-75
2022/12/18 04:02:22;;;;;;;5.10;3.00;;;;;;;-0.87;100.00;101509.06;6383467;27;20050;-75
2022/12/18 04:05:25;;;;;;;11.43;4.45;;;;;;;-0.89;100.00;101509.03;6350895;28;20108;-77
2022/12/18 04:08:27;;;;;;;9.10;5.10;;;;;;;-0.97;100.00;101508.09;6350650;28;20054;-76
2022/12/18 04:11:28;;;;;;;7.50;3.75;;;;;;;-1.05;100.00;101519.97;6349333;28;20055;-76
2022/12/18 04:14:28;;;;;;;9.05;5.25;;;;;;;-1.06;100.00;101523.41;6349287;28;20097;-77
2022/12/18 04:17:29;;;;;;;7.05;4.43;;;;;;;-1.12;100.00;101537.00;6349208;28;20044;-77
2022/12/18 04:20:30;;;;;;;8.77;5.13;;;;;;;-1.14;100.00;101537.84;6350279;28;20066;-77
2022/12/18 04:23:31;;;;;;;13.80;6.68;;;;;;;-1.16;100.00;101547.19;6350286;28;20364;-76
2022/12/18 04:26:32;;;;;;;17.10;5.20;;;;;;;-1.18;100.00;101554.00;6347475;28;20089;-77
2022/12/18 04:29:33;;;;;;;11.60;4.55;;;;;;;-1.27;100.00;101552.22;6350051;28;20092;-76
2022/12/18 04:32:34;;;;;;;16.80;6.35;;;;;;;-1.28;100.00;101564.13;6347762;28;20552;-77
2022/12/18 04:35:35;;;;;;;10.77;5.90;;;;;;;-1.42;100.00;101556.31;6347859;28;20415;-77
2022/12/18 04:38:36;;;;;;;7.68;5.20;;;;;;;-1.53;100.00;101562.97;6349865;28;20075;-76
2022/12/18 04:41:36;;;;;;;9.98;5.18;;;;;;;-1.55;100.00;101556.13;6348809;28;20460;-77
2022/12/18 04:44:43;;;;;;;11.77;4.55;;;;;;;-1.52;100.00;101564.72;6348862;28;20046;-76
2022/12/18 04:47:44;;;;;;;10.05;4.82;;;;;;;-1.56;100.00;101577.47;6349057;28;20048;-76
2022/12/18 04:50:44;;;;;;;7.95;3.28;;;;;;;-1.58;100.00;101586.81;6349157;28;20146;-75
2022/12/18 04:53:45;;;;;;;7.18;3.10;;;;;;;-1.63;100.00;101586.72;6349335;27;20044;-76
2022/12/18 04:56:46;;;;;;;10.32;4.00;;;;;;;-1.68;100.00;101588.38;6347821;28;20558;-75
2022/12/18 04:59:46;;;;;;;7.78;4.70;;;;;;;-1.66;100.00;101589.25;6348342;28;20046;-76
2022/12/18 05:02:47;;;;;;;9.18;4.40;;;;;;;-1.72;100.00;101601.97;6346907;28;20538;-76
2022/12/18 05:05:51;;;;;;;6.47;4.55;;;;;;;-1.82;100.00;101601.81;6348248;28;20046;-76
2022/12/18 05:08:52;;;;;;;6.82;4.10;;;;;;;-1.80;100.00;101611.25;6348061;28;20050;-76
2022/12/18 05:11:53;;;;;;;5.72;3.95;;;;;;;-1.82;100.00;101608.66;6346946;28;20372;-75
2022/12/18 05:14:54;;;;;;;6.53;3.65;;;;;;;-1.86;100.00;101610.28;6348768;28;20412;-76
2022/12/18 05:17:57;;;;;;;16.25;4.63;;;;;;;-1.91;100.00;101613.66;6346843;28;20074;-76
2022/12/18 05:20:58;;;;;;;9.52;3.95;;;;;;;-2.01;100.00;101622.88;6347811;28;20044;-76
2022/12/18 05:23:59;;;;;;;5.38;2.47;;;;;;;-2.05;100.00;101621.94;6346493;28;20066;-75
2022/12/18 05:27:00;;;;;;;13.20;4.70;;;;;;;-2.08;100.00;101624.47;6346427;28;20126;-75
2022/12/18 05:30:00;;;;;;;13.68;5.90;;;;;;;-2.14;100.00;101623.50;6347660;28;20085;-75
2022/12/18 05:33:01;;;;;;;8.07;5.10;;;;;;;-2.12;100.00;101647.41;6346398;28;20454;-75
2022/12/18 05:36:05;;;;;;;15.93;4.07;;;;;;;-2.11;100.00;101654.25;6346824;28;20456;-76
2022/12/18 05:39:06;;;;;;;9.90;4.03;;;;;;;-2.10;100.00;101656.84;6364033;27;20491;-76
2022/12/18 05:42:07;;;;;;;17.63;4.18;;;;;;;-2.09;100.00;101655.13;6346658;28;20435;-75
2022/12/18 05:45:08;;;;;;;9.50;4.53;;;;;;;-2.05;100.00;101659.47;6346907;28;20060;-75
2022/12/18 05:48:11;;;;;;;11.55;4.53;;;;;;;-2.07;100.00;101669.66;6346799;28;20044;-75
2022/12/18 05:51:19;;;;;;;8.40;3.50;;;;;;;-2.15;100.00;101672.94;6346852;28;20048;-75
2022/12/18 05:54:22;;;;;;;14.30;4.20;;;;;;;-2.23;100.00;101683.88;6329508;28;20047;-76
2022/12/18 05:57:22;;;;;;;14.23;4.72;;;;;;;-2.27;100.00;101689.78;6346507;28;20047;-76
2022/12/18 06:00:23;;;;;;;9.23;4.85;;;;;;;-2.26;100.00;101695.78;6347777;28;20113;-75
2022/12/18 06:03:24;;;;;;;8.27;4.80;;;;;;;-2.23;100.00;101704.34;6346456;28;20047;-75
2022/12/18 06:06:27;;;;;;;13.60;5.57;;;;;;;-2.22;100.00;101697.56;6347637;28;20071;-76
2022/12/18 06:09:29;;;;;;;26.55;7.43;;;;;;;-2.21;100.00;101694.16;6346623;28;20394;-76
2022/12/18 06:12:33;;;;;;;26.57;9.77;;;;;;;-2.18;100.00;101698.44;6347630;28;20050;-77
2022/12/18 06:15:36;;;;;;;23.65;10.68;;;;;;;-2.17;100.00;101701.03;6347579;28;20117;-76
2022/12/18 06:18:37;;;;;;;27.77;8.73;;;;;;;-2.11;100.00;101708.81;6346523;28;20055;-75
2022/12/18 06:21:38;;;;;;;28.25;8.35;;;;;;;-2.16;100.00;101720.69;6347229;28;20063;-76
2022/12/18 06:24:38;;;;;;;29.33;7.75;;;;;;;-2.21;100.00;101719.72;6347088;28;20039;-76
2022/12/18 06:27:39;;;;;;;15.52;7.47;;;;;;;-2.31;100.00;101718.69;6345849;28;20055;-76
2022/12/18 06:30:45;;;;;;;15.20;5.03;;;;;;;-2.42;100.00;101721.88;6328779;28;20138;-76
2022/12/18 06:33:46;;;;;;;18.25;5.63;;;;;;;-2.31;100.00;101728.91;6345655;28;20040;-77
2022/12/18 06:36:46;;;;;;;14.98;5.57;;;;;;;-2.32;100.00;101722.09;6345813;28;20160;-76
2022/12/18 06:39:47;;;;;;;23.95;6.35;;;;;;;-2.30;100.00;101730.66;6347119;28;20040;-75
2022/12/18 06:42:48;;;;;;;7.63;4.47;;;;;;;-2.27;100.00;101737.50;6345669;28;21124;-76
2022/12/18 06:45:52;;;;;;;15.00;6.72;;;;;;;-2.26;100.00;101746.91;6345696;28;20050;-76
2022/12/18 06:48:53;;;;;;;13.45;6.47;;;;;;;-2.32;100.00;101744.25;6346626;28;20054;-75
2022/12/18 06:51:53;;;;;;;17.60;6.38;;;;;;;-2.35;100.00;101752.69;6352253;28;20044;-76
2022/12/18 06:54:54;;;;;;;9.30;5.90;;;;;;;-2.37;100.00;101753.50;6367778;27;20063;-76
2022/12/18 06:57:55;;;;;;;9.85;4.68;;;;;;;-2.41;100.00;101765.34;6371537;27;20075;-76
2022/12/18 07:01:01;;;;;;;9.82;5.28;;;;;;;-2.41;100.00;101767.91;6376121;27;20416;-75
2022/12/18 07:04:02;;;;;;;16.95;6.32;;;;;;;-2.53;100.00;101775.34;6361362;27;20120;-76
2022/12/18 07:07:02;;;;;;;24.70;7.57;;;;;;;-2.41;100.00;101790.06;6352721;27;20403;-76
2022/12/18 07:10:04;;;;;;;10.57;4.40;;;;;;;-2.64;100.00;101777.69;6363812;27;20046;-75
2022/12/18 07:13:04;;;;;;;17.83;5.30;;;;;;;-2.48;100.00;101784.84;6368396;27;20055;-76
2022/12/18 07:16:05;;;;;;;11.75;4.30;;;;;;;-2.50;100.00;101799.28;6361012;27;20399;-75
2022/12/18 07:19:06;;;;;;;9.90;5.30;;;;;;;-2.50;100.00;101804.38;6373053;27;20099;-75
2022/12/18 07:22:07;;;;;;;8.40;4.40;;;;;;;-2.34;100.00;101808.13;6355933;27;20095;-75
2022/12/18 07:25:08;;;;;;;24.58;5.65;;;;;;;-2.40;100.00;101812.25;6371370;27;20031;-76
2022/12/18 07:28:09;;;;;;;15.82;6.78;;;;;;;-2.34;100.00;101813.25;6372964;27;20514;-75
2022/12/18 07:31:13;;;;;;;18.27;6.25;;;;;;;-2.17;100.00;101822.94;6374132;27;20039;-75
2022/12/18 07:34:14;;;;;;;10.68;4.32;;;;;;;-2.17;100.00;101820.38;6373462;27;20043;-75
2022/12/18 07:37:15;;;;;;;8.80;5.25;;;;;;;-2.07;100.00;101833.38;6374439;27;20054;-76
2022/12/18 07:40:16;;;;;;;10.82;5.25;;;;;;;-1.82;100.00;101836.41;6375635;27;20039;-76
2022/12/18 07:43:19;;;;;;;14.77;4.50;;;;;;;-1.76;100.00;101838.22;6374552;27;20035;-75
2022/12/18 07:46:20;;;;;;;10.70;5.25;;;;;;;-1.81;99.04;101843.25;6374223;27;20306;-76
2022/12/18 07:49:21;;;;;;;19.88;7.97;;;;;;;-1.69;99.11;101852.84;6374262;27;20055;-76
2022/12/18 07:52:22;;;;;;;14.48;4.63;;;;;;;-1.63;98.46;101864.06;6374236;27;20047;-78
2022/12/18 07:55:22;;;;;;;19.67;6.60;;;;;;;-1.68;96.97;101875.06;6374039;27;20050;-78
2022/12/18 07:58:23;;;;;;;17.95;5.70;;;;;;;-1.53;97.26;101865.06;6375395;27;20070;-78
2022/12/18 08:01:24;;;;;;;11.63;6.88;;;;;;;-1.49;96.27;101871.97;6373854;27;20411;-78
2022/12/18 08:04:25;;;;;;;11.75;4.40;;;;;;;-1.57;96.15;101875.25;6356731;27;20141;-77
2022/12/18 08:07:26;;;;;;;10.65;5.70;;;;;;;-1.31;95.45;101875.72;6373846;27;20039;-78
2022/12/18 08:10:27;;;;;;;16.83;6.90;;;;;;;-1.17;94.13;101883.59;6373976;27;20046;-78
2022/12/18 08:13:28;;;;;;;9.98;4.82;;;;;;;-1.27;92.80;101886.03;6373611;27;20047;-78
2022/12/18 08:16:30;;;;;;;21.45;4.65;;;;;;;-1.06;93.15;101888.06;6373716;27;20039;-78
2022/12/18 08:19:33;;;;;;;10.20;6.00;;;;;;;-0.91;93.80;101887.44;6374976;27;20415;-77
2022/12/18 08:22:35;;;;;;;12.98;5.20;;;;;;;-1.12;91.54;101884.56;6373420;27;20395;-77
2022/12/18 08:25:38;;;;;;;12.00;5.47;;;;;;;-0.89;90.89;101898.59;6374129;27;20486;-78
2022/12/18 08:28:39;;;;;;;16.00;5.65;;;;;;;-0.95;90.50;101884.81;6366946;27;20039;-78
2022/12/18 08:31:51;;;;;;;11.98;4.85;;;;;;;-0.96;88.32;101885.66;6373909;27;20035;-76
2022/12/18 08:34:51;;;;;;;9.18;3.58;;;;;;;-0.91;88.17;101896.84;6372307;27;20054;-76
2022/12/18 08:37:52;;;;;;;9.02;4.75;;;;;;;-0.94;86.92;101895.09;6372705;27;20118;-76
2022/12/18 08:41:00;;;;;;;5.95;3.45;;;;;;;-0.57;88.77;101908.47;6367857;27;20085;-75
2022/12/18 08:47:20;;;;;;;7.57;4.05;;;;;;;-0.13;84.15;101907.34;6361239;27;20039;-76
2022/12/18 08:50:21;;;;;;;17.52;5.43;;;;;;;-0.10;83.51;101912.53;6359444;27;20189;-75
2022/12/18 08:53:24;;;;;;;21.40;6.10;;;;;;;-0.14;84.26;101910.78;6358373;27;20031;-76
2022/12/18 08:56:27;;;;;;;13.02;6.30;;;;;;;0.12;84.03;101914.50;6355434;27;20040;-76
2022/12/18 08:59:28;;;;;;;18.73;8.40;;;;;;;-0.11;82.25;101921.91;6361846;27;20043;-76
2022/12/18 09:02:31;;;;;;;8.45;5.47;;;;;;;-0.10;82.72;101927.94;6354123;27;20040;-76
2022/12/18 09:05:32;;;;;;;11.30;5.50;;;;;;;0.01;82.97;101938.34;6371960;27;20046;-75
2022/12/18 09:08:34;;;;;;;16.15;4.82;;;;;;;0.04;79.94;101936.63;6361518;27;20047;-76
2022/12/18 09:11:35;;;;;;;30.35;8.40;;;;;;;0.25;82.51;101940.31;6355942;27;20043;-76
2022/12/18 09:14:36;;;;;;;20.00;5.88;;;;;;;0.25;82.38;101943.75;6366521;27;20149;-75
2022/12/18 09:17:37;;;;;;;8.65;5.72;;;;;;;0.01;78.83;101939.19;6363590;27;20162;-76
2022/12/18 09:20:38;;;;;;;17.75;7.00;;;;;;;0.51;81.57;101938.03;6370852;27;20031;-76
2022/12/18 09:23:41;;;;;;;11.98;7.18;;;;;;;0.74;80.86;101946.88;6349631;27;20039;-76
2022/12/18 09:26:43;;;;;;;17.45;5.78;;;;;;;0.53;79.04;101946.63;6369550;27;20464;-76
2022/12/18 09:29:43;;;;;;;15.93;7.68;;;;;;;0.83;81.39;101943.50;6373029;27;20088;-75
2022/12/18 09:32:45;;;;;;;15.93;5.27;;;;;;;0.94;79.85;101944.47;6354675;27;20459;-75
2022/12/18 09:35:46;;;;;;;9.98;4.95;;;;;;;0.87;77.66;101942.69;6372906;27;20039;-75
2022/12/18 09:38:47;;;;;;;21.13;5.97;;;;;;;0.72;78.63;101942.53;6371709;27;20479;-79
2022/12/18 09:41:54;;;;;;;14.50;5.03;;;;;;;0.68;77.07;101933.97;6372901;27;20031;-78
2022/12/18 09:44:55;;;;;;;19.13;6.80;;;;;;;0.94;79.12;101951.31;6378959;27;20035;-78
2022/12/18 09:47:57;;;;;;;9.40;5.30;;;;;;;1.06;76.97;101948.84;6328848;28;20499;-78
2022/12/18 09:51:03;;;;;;;10.70;5.35;;;;;;;1.28;78.80;101943.91;6346014;28;20040;-78
2022/12/18 09:54:14;;;;;;;17.92;7.05;;;;;;;1.04;77.76;101949.69;6340667;27;20138;-78
2022/12/18 09:57:20;;;;;;;14.40;7.40;;;;;;;1.20;77.97;101952.41;6361523;27;20047;-79
2022/12/18 10:00:23;;;;;;;18.80;5.88;;;;;;;1.16;75.57;101958.38;6385659;27;20506;-79
2022/12/18 10:03:24;;;;;;;23.45;7.28;;;;;;;1.03;74.77;101954.00;6371021;27;20068;-79
2022/12/18 10:06:40;;;;;;;40.90;7.28;;;;;;;1.32;76.93;101954.22;6370991;27;20098;-78
2022/12/18 10:09:44;;;;;;;11.73;5.60;;;;;;;1.41;77.25;101956.00;6353808;27;20043;-78
2022/12/18 10:12:57;;;;;;;21.80;7.13;;;;;;;1.37;77.95;101947.38;6371823;27;20502;-78
2022/12/18 10:16:15;;;;;;;15.02;5.20;;;;;;;1.25;76.73;101951.59;6353601;27;20047;-78
2022/12/18 10:19:41;;;;;;;23.33;6.10;;;;;;;1.48;80.12;101952.59;6372002;27;20043;-78
2022/12/18 10:23:01;;;;;;;13.55;6.68;;;;;;;1.33;75.81;101948.22;6371944;27;20062;-78
2022/12/18 10:26:10;;;;;;;13.70;5.20;;;;;;;1.66;78.08;101951.88;6371763;27;20380;-78
2022/12/18 10:29:13;;;;;;;15.07;6.85;;;;;;;1.54;77.48;101949.22;6353371;27;20111;-78
2022/12/18 10:32:20;;;;;;;12.85;7.03;;;;;;;1.89;75.28;101933.97;6371968;27;20095;-78
2022/12/18 10:35:24;;;;;;;13.57;6.60;;;;;;;1.89;75.33;101936.53;6371762;27;20269;-78
2022/12/18 10:38:27;;;;;;;9.15;5.18;;;;;;;1.90;73.67;101933.13;6370330;27;20411;-78
2022/12/18 10:41:30;;;;;;;22.63;7.45;;;;;;;1.68;74.02;101926.16;6370455;27;20031;-78
2022/12/18 10:44:31;;;;;;;13.50;7.00;;;;;;;1.80;75.73;101934.78;6371711;27;20050;-78
2022/12/18 10:47:34;;;;;;;14.85;6.30;;;;;;;1.65;73.24;101929.56;6370172;28;20039;-78
2022/12/18 10:50:39;;;;;;;19.80;6.57;;;;;;;1.72;73.39;101938.19;6371516;27;20039;-78
2022/12/18 10:53:42;;;;;;;17.38;6.32;;;;;;;1.73;72.86;101930.47;6370367;28;20040;-78
2022/12/18 10:56:44;;;;;;;18.33;5.70;;;;;;;1.95;73.25;101922.84;6371340;28;20047;-76
2022/12/18 10:59:56;;;;;;;20.30;6.13;;;;;;;1.76;73.56;101930.47;6371568;27;20409;-76
2022/12/18 11:02:57;;;;;;;;;;;;;;;1.80;73.09;101927.06;6370619;28;20043;-76
2022/12/18 11:06:04;;;;;;;6.57;3.40;;;;;;;1.39;73.64;101927.69;6353077;28;19927;-76
2022/12/18 11:09:23;;;;;;;15.68;6.75;;;;;;;1.91;74.89;101933.97;6370071;28;20122;-76
2022/12/18 11:12:23;;;;;;;27.75;8.05;;;;;;;1.48;76.53;101931.16;6369873;28;20061;-76
2022/12/18 11:15:30;;;;;;;16.85;5.72;;;;;;;1.36;78.50;101927.66;6369981;28;20383;-76
2022/12/18 11:18:35;;;;;;;14.20;7.38;;;;;;;1.22;80.86;101941.28;6352691;28;20108;-76
2022/12/18 11:21:41;;;;;;;11.48;5.68;;;;;;;1.48;78.67;101944.88;6371075;27;20538;-76
2022/12/18 11:24:42;;;;;;;14.40;6.68;;;;;;;1.77;74.82;101937.38;6369944;28;20096;-76
2022/12/18 11:27:51;;;;;;;30.88;6.70;;;;;;;1.56;73.69;101944.94;6371001;27;20067;-75
2022/12/18 11:31:19;;;;;;;18.40;7.45;;;;;;;1.83;73.90;101944.22;6371141;27;20039;-76
2022/12/18 11:34:27;;;;;;;12.15;6.22;;;;;;;1.88;76.95;101939.97;6371315;27;20113;-76
2022/12/18 11:37:29;;;;;;;14.95;5.88;;;;;;;1.58;77.64;101938.09;6374346;27;20043;-76
2022/12/18 11:40:39;;;;;;;18.35;6.78;;;;;;;1.12;78.82;101941.19;6375250;27;20034;-76
2022/12/18 11:43:53;;;;;;;19.58;6.55;;;;;;;1.13;78.50;101936.91;6385658;27;20155;-76
2022/12/18 11:47:01;;;;;;;16.52;5.63;;;;;;;1.23;80.46;101937.84;6394688;27;20083;-76
2022/12/18 11:50:10;;;;;;;15.20;4.50;;;;;;;1.38;81.10;101937.94;6401214;27;20038;-76
2022/12/18 11:53:12;;;;;;;26.88;6.50;;;;;;;1.49;80.06;101940.63;6399919;27;20411;-76
2022/12/18 11:56:43;;;;;;;13.60;5.20;;;;;;;1.79;78.11;101927.94;6400020;27;20399;-76
2022/12/18 12:00:17;;;;;;;20.13;5.90;;;;;;;1.92;76.70;101926.28;6399271;27;20055;-76
2022/12/18 12:03:47;;;;;;;19.10;6.03;;;;;;;1.97;78.54;101927.13;6395988;27;20487;-76
2022/12/18 12:07:19;;;;;;;8.95;5.30;;;;;;;1.72;77.65;101931.31;6382176;27;20049;-76
2022/12/18 12:10:38;;;;;;;9.03;4.37;;;;;;;1.85;77.16;101936.53;6399540;27;20481;-76
2022/12/18 12:14:06;;;;;;;11.65;6.18;;;;;;;2.04;75.01;101927.16;6399189;27;20561;-76
2022/12/18 12:17:33;;;;;;;13.30;5.45;;;;;;;1.76;73.20;101914.19;6400477;27;20050;-75
2022/12/18 12:20:40;;;;;;;11.85;5.28;;;;;;;1.85;75.11;101923.66;6385794;27;20141;-76
2022/12/18 12:23:52;;;;;;;21.40;7.35;;;;;;;1.92;74.36;101917.69;6400311;27;20170;-76
2022/12/18 12:26:59;;;;;;;;;;;;;;;1.91;74.58;101911.66;6400666;27;20066;-75
2022/12/18 12:30:08;;;;;;;11.63;3.92;;;;;;;1.70;76.73;101911.56;6400206;27;19919;-76
2022/12/18 12:33:30;;;;;;;16.75;6.80;;;;;;;1.93;74.19;101924.56;6399033;27;20046;-76
2022/12/18 12:37:06;;;;;;;16.02;7.70;;;;;;;1.74;74.88;101916.75;6384911;27;20491;-76
2022/12/18 12:40:11;;;;;;;13.85;7.45;;;;;;;1.78;75.96;101917.63;6374386;27;20039;-75
2022/12/18 12:43:31;;;;;;;14.10;6.35;;;;;;;1.91;76.51;101918.53;6374335;27;20479;-76
2022/12/18 12:46:36;;;;;;;19.77;6.85;;;;;;;1.79;76.57;101919.31;6361925;27;20039;-76
2022/12/18 12:49:39;;;;;;;10.05;5.22;;;;;;;1.76;77.17;101921.91;6361387;27;20093;-76
2022/12/18 12:52:45;;;;;;;11.27;5.28;;;;;;;1.73;77.90;101929.59;6348303;28;20438;-75
2022/12/18 12:55:46;;;;;;;12.15;5.38;;;;;;;1.72;78.53;101925.31;6330526;28;20465;-76
2022/12/18 12:59:29;;;;;;;8.82;7.03;;;;;;;1.75;76.23;101940.75;6347354;28;20080;-76
2022/12/18 13:02:39;;;;;;;16.05;6.00;;;;;;;1.58;76.99;101950.94;6325093;28;20396;-75
2022/12/18 13:05:54;;;;;;;8.02;3.95;;;;;;;1.39;78.37;101937.97;6348523;28;20043;-76
2022/12/18 13:09:00;;;;;;;11.85;5.53;;;;;;;1.30;79.00;101944.78;6366793;27;20035;-76
2022/12/18 13:15:37;;;;;;;14.32;4.53;;;;;;;1.03;79.74;101961.69;6373310;27;20068;-75
2022/12/18 13:18:38;;;;;;;14.15;4.53;;;;;;;1.22;81.60;101956.72;6372445;27;20118;-76
2022/12/18 13:21:40;;;;;;;17.65;5.28;;;;;;;1.34;78.77;101962.81;6372772;27;20058;-76
2022/12/18 13:24:43;;;;;;;24.10;6.78;;;;;;;1.35;80.64;101969.66;6355092;27;20055;-76
2022/12/18 13:27:43;;;;;;;14.93;5.15;;;;;;;1.28;82.91;101964.47;6372277;27;20290;-76
2022/12/18 13:31:00;;;;;;;12.95;6.30;;;;;;;1.31;81.36;101973.06;6364195;27;20063;-76
2022/12/18 13:34:29;;;;;;;9.68;4.43;;;;;;;1.20;79.53;101972.97;6364897;27;20035;-78
2022/12/18 13:37:33;;;;;;;9.68;5.15;;;;;;;1.21;81.11;101984.13;6353721;27;20122;-78
2022/12/18 13:40:46;;;;;;;10.32;5.63;;;;;;;1.19;81.76;101998.66;6363190;27;20054;-78
2022/12/18 13:43:48;;;;;;;;;;;;;;;1.22;80.40;102003.00;6346531;28;20503;-78
2022/12/18 13:46:51;;;;;;;15.38;5.75;;;;;;;1.30;81.17;101998.78;6363076;27;19919;-78
2022/12/18 13:49:52;;;;;;;14.75;6.53;;;;;;;1.17;80.07;102001.25;6328734;28;20518;-78
2022/12/18 13:52:53;;;;;;;13.00;5.88;;;;;;;1.09;80.01;102010.59;6346021;28;20415;-78
2022/12/18 13:55:54;;;;;;;13.70;6.95;;;;;;;1.02;80.16;102018.25;6330448;27;20116;-76
2022/12/18 13:59:23;;;;;;;12.75;6.38;;;;;;;0.99;80.28;102019.94;6338048;28;20549;-78
2022/12/18 14:02:26;;;;;;;8.32;5.13;;;;;;;0.99;79.94;102027.66;6362510;27;20055;-78
2022/12/18 14:05:37;;;;;;;7.78;5.00;;;;;;;0.98;80.09;102037.91;6345425;28;20101;-76
2022/12/18 14:08:42;;;;;;;11.55;6.25;;;;;;;0.80;82.67;102039.44;6360735;27;20039;-78
2022/12/18 14:11:48;;;;;;;20.75;6.85;;;;;;;0.57;83.91;102038.31;6370771;27;20452;-78
2022/12/18 14:14:51;;;;;;;10.40;6.38;;;;;;;0.52;84.32;102047.66;6370828;27;20036;-78
2022/12/18 14:17:52;;;;;;;14.52;6.45;;;;;;;0.44;86.32;102051.84;6353579;27;20092;-76
2022/12/18 14:20:57;;;;;;;11.55;5.78;;;;;;;0.38;88.00;102045.78;6353405;27;20055;-76